sensor_id;sensor_type;location;lat;lon;timestamp;P1;durP1;ratioP1;P2;durP2;ratioP2
20251;SDS011;10284;58.364;15.550;2022-12-15T00:02:17;5.72;;;3.60;;
20251;SDS011;10284;58.364;15.550;2022-12-15T00:05:02;4.10;;;3.40;;
20251;SDS011;10284;58.364;15.550;2022-12-15T00:07:46;4.97;;;2.97;;
20251;SDS011;10284;58.364;15.550;2022-12-15T00:10:30;5.50;;;3.78;;
20251;SDS011;10284;58.364;15.550;2022-12-15T00:13:14;4.22;;;3.45;;
20251;SDS011;10284;58.364;15.550;2022-12-15T00:15:58;4.22;;;3.25;;
20251;SDS011;10284;58.364;15.550;2022-12-15T00:18:43;5.88;;;3.83;;
20251;SDS011;10284;58.364;15.550;2022-12-15T00:21:27;6.00;;;3.53;;
20251;SDS011;10284;58.364;15.550;2022-12-15T00:24:10;5.25;;;3.83;;
20251;SDS011;10284;58.364;15.550;2022-12-15T00:26:54;6.53;;;3.63;;
20251;SDS011;10284;58.364;15.550;2022-12-15T00:29:38;6.35;;;3.83;;
20251;SDS011;10284;58.364;15.550;2022-12-15T00:32:22;4.30;;;3.20;;
20251;SDS011;10284;58.364;15.550;2022-12-15T00:35:07;5.55;;;3.70;;
20251;SDS011;10284;58.364;15.550;2022-12-15T00:37:51;5.18;;;3.38;;
20251;SDS011;10284;58.364;15.550;2022-12-15T00:40:35;4.68;;;3.65;;
20251;SDS011;10284;58.364;15.550;2022-12-15T00:43:00;5.85;;;3.80;;
20251;SDS011;10284;58.364;15.550;2022-12-15T00:45:26;4.68;;;3.38;;
20251;SDS011;10284;58.364;15.550;2022-12-15T00:48:11;4.35;;;3.08;;
20251;SDS011;10284;58.364;15.550;2022-12-15T00:50:37;5.78;;;3.55;;
20251;SDS011;10284;58.364;15.550;2022-12-15T00:53:20;4.38;;;3.25;;
20251;SDS011;10284;58.364;15.550;2022-12-15T00:56:06;5.45;;;3.58;;
20251;SDS011;10284;58.364;15.550;2022-12-15T00:58:50;4.70;;;3.47;;
20251;SDS011;10284;58.364;15.550;2022-12-15T01:01:34;4.00;;;3.28;;
20251;SDS011;10284;58.364;15.550;2022-12-15T01:04:18;4.35;;;3.05;;
20251;SDS011;10284;58.364;15.550;2022-12-15T01:07:02;5.63;;;3.40;;
20251;SDS011;10284;58.364;15.550;2022-12-15T01:09:46;5.18;;;3.60;;
20251;SDS011;10284;58.364;15.550;2022-12-15T01:12:30;4.53;;;3.50;;
20251;SDS011;10284;58.364;15.550;2022-12-15T01:15:14;5.32;;;3.60;;
20251;SDS011;10284;58.364;15.550;2022-12-15T01:17:58;6.40;;;2.97;;
20251;SDS011;10284;58.364;15.550;2022-12-15T01:20:42;4.07;;;3.17;;
20251;SDS011;10284;58.364;15.550;2022-12-15T01:23:07;4.68;;;3.17;;
20251;SDS011;10284;58.364;15.550;2022-12-15T01:25:33;4.10;;;3.20;;
20251;SDS011;10284;58.364;15.550;2022-12-15T01:27:58;5.82;;;3.35;;
20251;SDS011;10284;58.364;15.550;2022-12-15T01:30:24;3.40;;;2.70;;
20251;SDS011;10284;58.364;15.550;2022-12-15T01:32:51;4.32;;;3.15;;
20251;SDS011;10284;58.364;15.550;2022-12-15T01:35:16;4.35;;;3.28;;
20251;SDS011;10284;58.364;15.550;2022-12-15T01:37:42;4.97;;;3.05;;
20251;SDS011;10284;58.364;15.550;2022-12-15T01:40:11;4.30;;;3.10;;
20251;SDS011;10284;58.364;15.550;2022-12-15T01:42:56;3.17;;;2.60;;
20251;SDS011;10284;58.364;15.550;2022-12-15T01:48:09;4.18;;;3.00;;
20251;SDS011;10284;58.364;15.550;2022-12-15T01:50:44;3.88;;;3.10;;
20251;SDS011;10284;58.364;15.550;2022-12-15T01:53:12;3.38;;;2.97;;
20251;SDS011;10284;58.364;15.550;2022-12-15T01:55:39;4.82;;;3.28;;
20251;SDS011;10284;58.364;15.550;2022-12-15T01:58:07;3.20;;;2.80;;
20251;SDS011;10284;58.364;15.550;2022-12-15T02:00:34;3.85;;;2.83;;
20251;SDS011;10284;58.364;15.550;2022-12-15T02:02:59;3.83;;;2.78;;
20251;SDS011;10284;58.364;15.550;2022-12-15T02:05:26;5.43;;;3.03;;
20251;SDS011;10284;58.364;15.550;2022-12-15T02:07:52;3.35;;;3.03;;
20251;SDS011;10284;58.364;15.550;2022-12-15T02:10:18;4.93;;;3.35;;
20251;SDS011;10284;58.364;15.550;2022-12-15T02:17:55;4.03;;;2.80;;
20251;SDS011;10284;58.364;15.550;2022-12-15T02:26:16;3.13;;;2.75;;
20251;SDS011;10284;58.364;15.550;2022-12-15T02:31:59;4.22;;;2.88;;
20251;SDS011;10284;58.364;15.550;2022-12-15T02:34:47;5.43;;;3.15;;
20251;SDS011;10284;58.364;15.550;2022-12-15T02:37:28;3.45;;;2.90;;
20251;SDS011;10284;58.364;15.550;2022-12-15T02:39:54;3.92;;;2.88;;
20251;SDS011;10284;58.364;15.550;2022-12-15T02:42:19;3.67;;;2.58;;
20251;SDS011;10284;58.364;15.550;2022-12-15T02:47:31;4.93;;;3.00;;
20251;SDS011;10284;58.364;15.550;2022-12-15T02:55:52;3.78;;;2.95;;
20251;SDS011;10284;58.364;15.550;2022-12-15T02:58:36;4.88;;;3.10;;
20251;SDS011;10284;58.364;15.550;2022-12-15T03:01:19;4.15;;;2.65;;
20251;SDS011;10284;58.364;15.550;2022-12-15T03:03:58;5.57;;;2.90;;
20251;SDS011;10284;58.364;15.550;2022-12-15T03:06:24;5.93;;;3.10;;
20251;SDS011;10284;58.364;15.550;2022-12-15T03:08:50;3.83;;;2.75;;
20251;SDS011;10284;58.364;15.550;2022-12-15T03:11:16;3.30;;;2.65;;
20251;SDS011;10284;58.364;15.550;2022-12-15T03:13:41;4.80;;;2.70;;
20251;SDS011;10284;58.364;15.550;2022-12-15T03:16:07;3.63;;;2.80;;
20251;SDS011;10284;58.364;15.550;2022-12-15T03:18:32;4.22;;;2.80;;
20251;SDS011;10284;58.364;15.550;2022-12-15T03:20:58;3.40;;;2.88;;
20251;SDS011;10284;58.364;15.550;2022-12-15T03:23:23;3.03;;;2.55;;
20251;SDS011;10284;58.364;15.550;2022-12-15T03:25:49;5.07;;;2.67;;
20251;SDS011;10284;58.364;15.550;2022-12-15T03:28:15;3.60;;;3.10;;
20251;SDS011;10284;58.364;15.550;2022-12-15T03:30:41;4.07;;;3.08;;
20251;SDS011;10284;58.364;15.550;2022-12-15T03:33:06;3.63;;;3.05;;
20251;SDS011;10284;58.364;15.550;2022-12-15T03:35:32;4.32;;;2.97;;
20251;SDS011;10284;58.364;15.550;2022-12-15T03:37:58;4.28;;;2.80;;
20251;SDS011;10284;58.364;15.550;2022-12-15T03:40:23;4.60;;;2.90;;
20251;SDS011;10284;58.364;15.550;2022-12-15T03:42:49;3.63;;;2.72;;
20251;SDS011;10284;58.364;15.550;2022-12-15T03:45:18;4.03;;;2.92;;
20251;SDS011;10284;58.364;15.550;2022-12-15T03:47:44;3.03;;;2.53;;
20251;SDS011;10284;58.364;15.550;2022-12-15T03:50:11;3.13;;;2.67;;
20251;SDS011;10284;58.364;15.550;2022-12-15T03:52:38;4.22;;;2.90;;
20251;SDS011;10284;58.364;15.550;2022-12-15T03:55:04;3.75;;;2.90;;
20251;SDS011;10284;58.364;15.550;2022-12-15T03:57:31;4.75;;;3.00;;
20251;SDS011;10284;58.364;15.550;2022-12-15T03:59:57;4.10;;;2.95;;
20251;SDS011;10284;58.364;15.550;2022-12-15T04:02:22;5.07;;;3.10;;
20251;SDS011;10284;58.364;15.550;2022-12-15T04:04:48;6.05;;;3.72;;
20251;SDS011;10284;58.364;15.550;2022-12-15T04:07:13;3.88;;;3.03;;
20251;SDS011;10284;58.364;15.550;2022-12-15T04:09:39;4.05;;;2.83;;
20251;SDS011;10284;58.364;15.550;2022-12-15T04:12:05;4.28;;;2.88;;
20251;SDS011;10284;58.364;15.550;2022-12-15T04:14:31;4.28;;;3.00;;
20251;SDS011;10284;58.364;15.550;2022-12-15T04:16:56;3.25;;;2.92;;
20251;SDS011;10284;58.364;15.550;2022-12-15T04:19:22;3.53;;;2.63;;
20251;SDS011;10284;58.364;15.550;2022-12-15T04:22:06;3.83;;;2.78;;
20251;SDS011;10284;58.364;15.550;2022-12-15T04:24:32;3.55;;;2.88;;
20251;SDS011;10284;58.364;15.550;2022-12-15T04:27:16;3.22;;;2.80;;
20251;SDS011;10284;58.364;15.550;2022-12-15T04:30:00;3.72;;;2.78;;
20251;SDS011;10284;58.364;15.550;2022-12-15T04:32:44;5.85;;;3.13;;
20251;SDS011;10284;58.364;15.550;2022-12-15T04:35:28;4.25;;;2.47;;
20251;SDS011;10284;58.364;15.550;2022-12-15T04:38:13;3.75;;;2.83;;
20251;SDS011;10284;58.364;15.550;2022-12-15T04:40:57;4.13;;;2.80;;
20251;SDS011;10284;58.364;15.550;2022-12-15T04:43:41;4.30;;;2.65;;
20251;SDS011;10284;58.364;15.550;2022-12-15T04:46:25;5.45;;;3.08;;
20251;SDS011;10284;58.364;15.550;2022-12-15T04:49:09;4.55;;;2.95;;
20251;SDS011;10284;58.364;15.550;2022-12-15T04:51:53;3.20;;;2.58;;
20251;SDS011;10284;58.364;15.550;2022-12-15T04:54:37;3.58;;;2.63;;
20251;SDS011;10284;58.364;15.550;2022-12-15T04:57:21;4.80;;;2.90;;
20251;SDS011;10284;58.364;15.550;2022-12-15T05:00:05;3.95;;;2.85;;
20251;SDS011;10284;58.364;15.550;2022-12-15T05:02:49;5.03;;;2.88;;
20251;SDS011;10284;58.364;15.550;2022-12-15T05:05:33;3.50;;;2.60;;
20251;SDS011;10284;58.364;15.550;2022-12-15T05:08:17;4.97;;;2.85;;
20251;SDS011;10284;58.364;15.550;2022-12-15T05:11:01;3.28;;;2.50;;
20251;SDS011;10284;58.364;15.550;2022-12-15T05:13:45;3.17;;;2.53;;
20251;SDS011;10284;58.364;15.550;2022-12-15T05:16:29;4.28;;;2.88;;
20251;SDS011;10284;58.364;15.550;2022-12-15T05:19:13;3.95;;;2.80;;
20251;SDS011;10284;58.364;15.550;2022-12-15T05:21:57;8.13;;;2.63;;
20251;SDS011;10284;58.364;15.550;2022-12-15T05:24:41;4.93;;;2.70;;
20251;SDS011;10284;58.364;15.550;2022-12-15T05:27:25;2.78;;;2.47;;
20251;SDS011;10284;58.364;15.550;2022-12-15T05:30:09;4.28;;;2.53;;
20251;SDS011;10284;58.364;15.550;2022-12-15T05:32:54;7.88;;;2.78;;
20251;SDS011;10284;58.364;15.550;2022-12-15T05:35:19;6.50;;;2.83;;
20251;SDS011;10284;58.364;15.550;2022-12-15T05:37:45;4.43;;;2.92;;
20251;SDS011;10284;58.364;15.550;2022-12-15T05:40:10;3.40;;;2.40;;
20251;SDS011;10284;58.364;15.550;2022-12-15T05:42:36;2.92;;;2.42;;
20251;SDS011;10284;58.364;15.550;2022-12-15T05:45:01;5.40;;;3.33;;
20251;SDS011;10284;58.364;15.550;2022-12-15T05:47:27;3.33;;;2.78;;
20251;SDS011;10284;58.364;15.550;2022-12-15T05:49:52;5.68;;;3.00;;
20251;SDS011;10284;58.364;15.550;2022-12-15T05:52:17;4.22;;;2.92;;
20251;SDS011;10284;58.364;15.550;2022-12-15T05:54:43;4.40;;;2.97;;
20251;SDS011;10284;58.364;15.550;2022-12-15T05:57:08;5.63;;;3.05;;
20251;SDS011;10284;58.364;15.550;2022-12-15T05:59:34;6.30;;;2.90;;
20251;SDS011;10284;58.364;15.550;2022-12-15T06:01:59;4.38;;;2.80;;
20251;SDS011;10284;58.364;15.550;2022-12-15T06:04:25;6.25;;;3.00;;
20251;SDS011;10284;58.364;15.550;2022-12-15T06:06:50;3.75;;;2.83;;
20251;SDS011;10284;58.364;15.550;2022-12-15T06:09:15;4.05;;;2.40;;
20251;SDS011;10284;58.364;15.550;2022-12-15T06:11:42;3.72;;;2.78;;
20251;SDS011;10284;58.364;15.550;2022-12-15T06:14:08;4.78;;;2.83;;
20251;SDS011;10284;58.364;15.550;2022-12-15T06:16:33;5.13;;;3.30;;
20251;SDS011;10284;58.364;15.550;2022-12-15T06:19:00;4.90;;;2.97;;
20251;SDS011;10284;58.364;15.550;2022-12-15T06:21:26;4.82;;;3.20;;
20251;SDS011;10284;58.364;15.550;2022-12-15T06:23:59;5.03;;;3.00;;
20251;SDS011;10284;58.364;15.550;2022-12-15T06:28:58;6.18;;;3.10;;
20251;SDS011;10284;58.364;15.550;2022-12-15T06:31:26;7.07;;;3.03;;
20251;SDS011;10284;58.364;15.550;2022-12-15T06:33:53;5.65;;;3.33;;
20251;SDS011;10284;58.364;15.550;2022-12-15T06:36:19;4.93;;;3.05;;
20251;SDS011;10284;58.364;15.550;2022-12-15T06:38:45;8.25;;;2.90;;
20251;SDS011;10284;58.364;15.550;2022-12-15T06:41:12;6.68;;;3.30;;
20251;SDS011;10284;58.364;15.550;2022-12-15T06:43:39;5.20;;;2.88;;
20251;SDS011;10284;58.364;15.550;2022-12-15T06:46:05;4.53;;;2.70;;
20251;SDS011;10284;58.364;15.550;2022-12-15T06:48:30;10.90;;;2.80;;
20251;SDS011;10284;58.364;15.550;2022-12-15T06:50:56;3.95;;;2.58;;
20251;SDS011;10284;58.364;15.550;2022-12-15T06:53:26;4.43;;;2.78;;
20251;SDS011;10284;58.364;15.550;2022-12-15T06:55:52;4.28;;;3.00;;
20251;SDS011;10284;58.364;15.550;2022-12-15T06:58:17;2.97;;;2.45;;
20251;SDS011;10284;58.364;15.550;2022-12-15T07:00:43;3.55;;;2.45;;
20251;SDS011;10284;58.364;15.550;2022-12-15T07:03:14;4.18;;;2.45;;
20251;SDS011;10284;58.364;15.550;2022-12-15T07:05:41;4.35;;;2.80;;
20251;SDS011;10284;58.364;15.550;2022-12-15T07:08:08;4.65;;;2.75;;
20251;SDS011;10284;58.364;15.550;2022-12-15T07:10:36;4.35;;;2.60;;
20251;SDS011;10284;58.364;15.550;2022-12-15T07:13:08;3.53;;;2.55;;
20251;SDS011;10284;58.364;15.550;2022-12-15T07:15:34;4.18;;;2.50;;
20251;SDS011;10284;58.364;15.550;2022-12-15T07:18:00;3.33;;;2.10;;
20251;SDS011;10284;58.364;15.550;2022-12-15T07:20:26;4.40;;;2.40;;
20251;SDS011;10284;58.364;15.550;2022-12-15T07:22:52;4.10;;;2.40;;
20251;SDS011;10284;58.364;15.550;2022-12-15T07:25:17;2.47;;;2.10;;
20251;SDS011;10284;58.364;15.550;2022-12-15T07:27:44;3.33;;;2.53;;
20251;SDS011;10284;58.364;15.550;2022-12-15T07:30:10;3.03;;;2.20;;
20251;SDS011;10284;58.364;15.550;2022-12-15T07:32:36;3.97;;;2.58;;
20251;SDS011;10284;58.364;15.550;2022-12-15T07:35:02;2.83;;;2.28;;
20251;SDS011;10284;58.364;15.550;2022-12-15T07:37:29;4.50;;;2.80;;
20251;SDS011;10284;58.364;15.550;2022-12-15T07:39:55;3.78;;;2.50;;
20251;SDS011;10284;58.364;15.550;2022-12-15T07:42:21;3.53;;;2.50;;
20251;SDS011;10284;58.364;15.550;2022-12-15T07:44:46;4.85;;;2.53;;
20251;SDS011;10284;58.364;15.550;2022-12-15T07:47:13;3.72;;;2.55;;
20251;SDS011;10284;58.364;15.550;2022-12-15T07:49:38;5.97;;;2.78;;
20251;SDS011;10284;58.364;15.550;2022-12-15T07:52:04;4.72;;;2.58;;
20251;SDS011;10284;58.364;15.550;2022-12-15T07:54:29;4.93;;;3.10;;
20251;SDS011;10284;58.364;15.550;2022-12-15T07:56:55;5.18;;;2.97;;
20251;SDS011;10284;58.364;15.550;2022-12-15T07:59:20;10.15;;;2.95;;
20251;SDS011;10284;58.364;15.550;2022-12-15T08:01:47;6.85;;;2.95;;
20251;SDS011;10284;58.364;15.550;2022-12-15T08:04:13;6.82;;;3.22;;
20251;SDS011;10284;58.364;15.550;2022-12-15T08:06:38;11.60;;;4.00;;
20251;SDS011;10284;58.364;15.550;2022-12-15T08:09:04;10.82;;;4.43;;
20251;SDS011;10284;58.364;15.550;2022-12-15T08:11:31;9.90;;;4.05;;
20251;SDS011;10284;58.364;15.550;2022-12-15T08:13:58;10.80;;;5.18;;
20251;SDS011;10284;58.364;15.550;2022-12-15T08:16:23;12.40;;;4.82;;
20251;SDS011;10284;58.364;15.550;2022-12-15T08:18:49;16.23;;;5.35;;
20251;SDS011;10284;58.364;15.550;2022-12-15T08:21:14;13.70;;;4.80;;
20251;SDS011;10284;58.364;15.550;2022-12-15T08:23:40;26.33;;;8.82;;
20251;SDS011;10284;58.364;15.550;2022-12-15T08:26:07;24.90;;;6.50;;
20251;SDS011;10284;58.364;15.550;2022-12-15T08:28:34;14.48;;;5.65;;
20251;SDS011;10284;58.364;15.550;2022-12-15T08:31:04;19.60;;;6.28;;
20251;SDS011;10284;58.364;15.550;2022-12-15T08:33:33;13.88;;;5.45;;
20251;SDS011;10284;58.364;15.550;2022-12-15T08:36:03;9.48;;;3.72;;
20251;SDS011;10284;58.364;15.550;2022-12-15T08:38:31;11.25;;;3.70;;
20251;SDS011;10284;58.364;15.550;2022-12-15T08:40:57;15.10;;;4.78;;
20251;SDS011;10284;58.364;15.550;2022-12-15T08:43:22;15.88;;;5.10;;
20251;SDS011;10284;58.364;15.550;2022-12-15T08:45:48;14.13;;;4.80;;
20251;SDS011;10284;58.364;15.550;2022-12-15T08:48:14;10.27;;;4.45;;
20251;SDS011;10284;58.364;15.550;2022-12-15T08:50:43;17.38;;;5.65;;
20251;SDS011;10284;58.364;15.550;2022-12-15T08:53:09;15.00;;;5.15;;
20251;SDS011;10284;58.364;15.550;2022-12-15T08:55:35;18.10;;;5.50;;
20251;SDS011;10284;58.364;15.550;2022-12-15T08:58:00;23.60;;;5.60;;
20251;SDS011;10284;58.364;15.550;2022-12-15T09:00:26;15.40;;;5.65;;
20251;SDS011;10284;58.364;15.550;2022-12-15T09:02:51;11.85;;;4.32;;
20251;SDS011;10284;58.364;15.550;2022-12-15T09:05:17;12.57;;;4.32;;
20251;SDS011;10284;58.364;15.550;2022-12-15T09:07:42;10.10;;;4.22;;
20251;SDS011;10284;58.364;15.550;2022-12-15T09:10:08;18.80;;;3.92;;
20251;SDS011;10284;58.364;15.550;2022-12-15T09:12:33;10.00;;;4.10;;
20251;SDS011;10284;58.364;15.550;2022-12-15T09:14:59;9.70;;;4.40;;
20251;SDS011;10284;58.364;15.550;2022-12-15T09:17:24;5.70;;;3.70;;
20251;SDS011;10284;58.364;15.550;2022-12-15T09:19:50;7.15;;;3.88;;
20251;SDS011;10284;58.364;15.550;2022-12-15T09:22:16;6.78;;;4.00;;
20251;SDS011;10284;58.364;15.550;2022-12-15T09:24:42;7.57;;;3.83;;
20251;SDS011;10284;58.364;15.550;2022-12-15T09:27:07;6.32;;;3.63;;
20251;SDS011;10284;58.364;15.550;2022-12-15T09:29:34;7.68;;;3.67;;
20251;SDS011;10284;58.364;15.550;2022-12-15T09:31:59;8.95;;;3.40;;
20251;SDS011;10284;58.364;15.550;2022-12-15T09:34:25;7.43;;;3.15;;
20251;SDS011;10284;58.364;15.550;2022-12-15T09:36:50;4.68;;;3.47;;
20251;SDS011;10284;58.364;15.550;2022-12-15T09:39:16;5.15;;;3.58;;
20251;SDS011;10284;58.364;15.550;2022-12-15T09:41:41;7.50;;;4.18;;
20251;SDS011;10284;58.364;15.550;2022-12-15T09:44:17;7.75;;;3.75;;
20251;SDS011;10284;58.364;15.550;2022-12-15T09:46:50;7.30;;;4.28;;
20251;SDS011;10284;58.364;15.550;2022-12-15T09:49:46;6.55;;;3.97;;
20251;SDS011;10284;58.364;15.550;2022-12-15T09:52:16;6.60;;;3.55;;
20251;SDS011;10284;58.364;15.550;2022-12-15T09:54:51;5.82;;;4.47;;
20251;SDS011;10284;58.364;15.550;2022-12-15T10:05:13;7.78;;;4.82;;
20251;SDS011;10284;58.364;15.550;2022-12-15T10:07:47;7.70;;;4.80;;
20251;SDS011;10284;58.364;15.550;2022-12-15T10:10:15;7.93;;;4.65;;
20251;SDS011;10284;58.364;15.550;2022-12-15T10:12:44;7.32;;;4.22;;
20251;SDS011;10284;58.364;15.550;2022-12-15T10:15:26;9.95;;;5.32;;
20251;SDS011;10284;58.364;15.550;2022-12-15T10:18:01;9.35;;;5.03;;
20251;SDS011;10284;58.364;15.550;2022-12-15T10:20:29;7.43;;;4.63;;
20251;SDS011;10284;58.364;15.550;2022-12-15T10:22:55;5.93;;;3.90;;
20251;SDS011;10284;58.364;15.550;2022-12-15T10:25:30;5.57;;;3.78;;
20251;SDS011;10284;58.364;15.550;2022-12-15T10:33:34;5.88;;;4.10;;
20251;SDS011;10284;58.364;15.550;2022-12-15T10:36:01;6.55;;;3.97;;
20251;SDS011;10284;58.364;15.550;2022-12-15T10:38:34;8.07;;;4.53;;
20251;SDS011;10284;58.364;15.550;2022-12-15T10:41:19;5.65;;;3.83;;
20251;SDS011;10284;58.364;15.550;2022-12-15T10:43:46;6.70;;;4.55;;
20251;SDS011;10284;58.364;15.550;2022-12-15T10:46:14;6.15;;;4.10;;
20251;SDS011;10284;58.364;15.550;2022-12-15T10:48:45;6.07;;;4.18;;
20251;SDS011;10284;58.364;15.550;2022-12-15T10:51:16;5.78;;;4.05;;
20251;SDS011;10284;58.364;15.550;2022-12-15T10:53:43;6.20;;;3.75;;
20251;SDS011;10284;58.364;15.550;2022-12-15T10:56:16;6.47;;;4.22;;
20251;SDS011;10284;58.364;15.550;2022-12-15T10:58:52;6.72;;;3.65;;
20251;SDS011;10284;58.364;15.550;2022-12-15T11:01:23;4.63;;;3.70;;
20251;SDS011;10284;58.364;15.550;2022-12-15T11:03:50;6.82;;;4.45;;
20251;SDS011;10284;58.364;15.550;2022-12-15T11:06:30;4.15;;;3.55;;
20251;SDS011;10284;58.364;15.550;2022-12-15T11:09:06;5.07;;;3.70;;
20251;SDS011;10284;58.364;15.550;2022-12-15T11:11:52;7.22;;;3.95;;
20251;SDS011;10284;58.364;15.550;2022-12-15T11:14:46;5.15;;;3.85;;
20251;SDS011;10284;58.364;15.550;2022-12-15T11:17:14;5.57;;;4.18;;
20251;SDS011;10284;58.364;15.550;2022-12-15T11:24:47;5.55;;;4.07;;
20251;SDS011;10284;58.364;15.550;2022-12-15T11:27:33;4.90;;;3.90;;
20251;SDS011;10284;58.364;15.550;2022-12-15T11:30:10;8.02;;;4.30;;
20251;SDS011;10284;58.364;15.550;2022-12-15T11:32:38;5.95;;;4.28;;
20251;SDS011;10284;58.364;15.550;2022-12-15T11:35:10;5.53;;;4.32;;
20251;SDS011;10284;58.364;15.550;2022-12-15T11:37:40;5.75;;;4.38;;
20251;SDS011;10284;58.364;15.550;2022-12-15T11:48:20;6.30;;;4.55;;
20251;SDS011;10284;58.364;15.550;2022-12-15T12:15:53;6.65;;;5.00;;
20251;SDS011;10284;58.364;15.550;2022-12-15T12:18:27;6.00;;;4.30;;
20251;SDS011;10284;58.364;15.550;2022-12-15T12:21:13;8.15;;;4.05;;
20251;SDS011;10284;58.364;15.550;2022-12-15T12:26:16;5.85;;;4.28;;
20251;SDS011;10284;58.364;15.550;2022-12-15T12:28:50;5.22;;;3.97;;
20251;SDS011;10284;58.364;15.550;2022-12-15T12:31:39;5.07;;;4.05;;
20251;SDS011;10284;58.364;15.550;2022-12-15T12:39:52;5.68;;;3.40;;
20251;SDS011;10284;58.364;15.550;2022-12-15T12:42:26;4.68;;;3.67;;
20251;SDS011;10284;58.364;15.550;2022-12-15T12:44:57;4.95;;;3.30;;
20251;SDS011;10284;58.364;15.550;2022-12-15T12:47:27;5.60;;;3.85;;
20251;SDS011;10284;58.364;15.550;2022-12-15T12:50:05;5.95;;;4.05;;
20251;SDS011;10284;58.364;15.550;2022-12-15T12:52:47;5.10;;;3.53;;
20251;SDS011;10284;58.364;15.550;2022-12-15T12:57:50;5.10;;;3.90;;
20251;SDS011;10284;58.364;15.550;2022-12-15T13:02:46;6.50;;;3.72;;
20251;SDS011;10284;58.364;15.550;2022-12-15T13:10:29;4.10;;;3.20;;
20251;SDS011;10284;58.364;15.550;2022-12-15T13:12:55;4.32;;;3.28;;
20251;SDS011;10284;58.364;15.550;2022-12-15T13:15:36;4.70;;;4.00;;
20251;SDS011;10284;58.364;15.550;2022-12-15T13:20:31;4.03;;;3.10;;
20251;SDS011;10284;58.364;15.550;2022-12-15T13:44:17;4.70;;;3.55;;
20251;SDS011;10284;58.364;15.550;2022-12-15T13:46:50;4.53;;;3.50;;
20251;SDS011;10284;58.364;15.550;2022-12-15T13:49:34;4.72;;;3.28;;
20251;SDS011;10284;58.364;15.550;2022-12-15T13:52:09;4.47;;;3.70;;
20251;SDS011;10284;58.364;15.550;2022-12-15T13:54:38;4.28;;;3.40;;
20251;SDS011;10284;58.364;15.550;2022-12-15T14:05:11;4.25;;;3.30;;
20251;SDS011;10284;58.364;15.550;2022-12-15T14:07:42;3.83;;;2.95;;
20251;SDS011;10284;58.364;15.550;2022-12-15T14:10:17;4.20;;;3.03;;
20251;SDS011;10284;58.364;15.550;2022-12-15T14:15:17;5.55;;;3.22;;
20251;SDS011;10284;58.364;15.550;2022-12-15T14:17:49;4.83;;;3.03;;
20251;SDS011;10284;58.364;15.550;2022-12-15T14:20:16;4.13;;;3.05;;
20251;SDS011;10284;58.364;15.550;2022-12-15T14:22:45;4.20;;;2.97;;
20251;SDS011;10284;58.364;15.550;2022-12-15T14:25:17;3.83;;;3.00;;
20251;SDS011;10284;58.364;15.550;2022-12-15T14:27:44;3.78;;;3.00;;
20251;SDS011;10284;58.364;15.550;2022-12-15T14:32:35;4.85;;;3.30;;
20251;SDS011;10284;58.364;15.550;2022-12-15T14:35:00;4.20;;;2.92;;
20251;SDS011;10284;58.364;15.550;2022-12-15T14:37:26;3.92;;;3.03;;
20251;SDS011;10284;58.364;15.550;2022-12-15T14:39:53;3.63;;;2.92;;
20251;SDS011;10284;58.364;15.550;2022-12-15T14:42:22;5.18;;;2.85;;
20251;SDS011;10284;58.364;15.550;2022-12-15T14:44:50;3.47;;;2.90;;
20251;SDS011;10284;58.364;15.550;2022-12-15T14:49:53;4.47;;;2.83;;
20251;SDS011;10284;58.364;15.550;2022-12-15T14:52:27;5.22;;;3.00;;
20251;SDS011;10284;58.364;15.550;2022-12-15T14:54:57;3.40;;;2.95;;
20251;SDS011;10284;58.364;15.550;2022-12-15T14:57:27;6.28;;;3.42;;
20251;SDS011;10284;58.364;15.550;2022-12-15T15:08:28;4.78;;;3.03;;
20251;SDS011;10284;58.364;15.550;2022-12-15T15:10:55;4.72;;;3.67;;
20251;SDS011;10284;58.364;15.550;2022-12-15T15:13:23;4.97;;;3.08;;
20251;SDS011;10284;58.364;15.550;2022-12-15T15:15:53;5.43;;;2.92;;
20251;SDS011;10284;58.364;15.550;2022-12-15T15:18:22;5.00;;;3.20;;
20251;SDS011;10284;58.364;15.550;2022-12-15T15:20:51;4.47;;;3.10;;
20251;SDS011;10284;58.364;15.550;2022-12-15T15:23:22;3.58;;;2.70;;
20251;SDS011;10284;58.364;15.550;2022-12-15T15:25:54;4.60;;;3.30;;
20251;SDS011;10284;58.364;15.550;2022-12-15T15:28:25;5.40;;;3.42;;
20251;SDS011;10284;58.364;15.550;2022-12-15T15:33:17;3.92;;;3.03;;
20251;SDS011;10284;58.364;15.550;2022-12-15T15:35:43;3.28;;;2.58;;
20251;SDS011;10284;58.364;15.550;2022-12-15T15:38:17;3.60;;;2.97;;
20251;SDS011;10284;58.364;15.550;2022-12-15T15:40:55;3.20;;;2.90;;
20251;SDS011;10284;58.364;15.550;2022-12-15T15:43:23;4.93;;;2.88;;
20251;SDS011;10284;58.364;15.550;2022-12-15T15:45:49;4.15;;;3.15;;
20251;SDS011;10284;58.364;15.550;2022-12-15T15:48:24;3.65;;;3.10;;
20251;SDS011;10284;58.364;15.550;2022-12-15T15:50:52;4.00;;;3.05;;
20251;SDS011;10284;58.364;15.550;2022-12-15T15:53:20;3.75;;;2.65;;
20251;SDS011;10284;58.364;15.550;2022-12-15T15:55:47;3.72;;;2.95;;
20251;SDS011;10284;58.364;15.550;2022-12-15T15:58:14;3.90;;;3.10;;
20251;SDS011;10284;58.364;15.550;2022-12-15T16:00:39;3.78;;;3.00;;
20251;SDS011;10284;58.364;15.550;2022-12-15T16:03:05;4.55;;;3.20;;
20251;SDS011;10284;58.364;15.550;2022-12-15T16:05:31;4.72;;;3.63;;
20251;SDS011;10284;58.364;15.550;2022-12-15T16:07:56;4.93;;;3.30;;
20251;SDS011;10284;58.364;15.550;2022-12-15T16:10:22;5.22;;;3.53;;
20251;SDS011;10284;58.364;15.550;2022-12-15T16:12:51;5.00;;;3.50;;
20251;SDS011;10284;58.364;15.550;2022-12-15T16:15:22;5.82;;;3.70;;
20251;SDS011;10284;58.364;15.550;2022-12-15T16:17:50;4.47;;;3.25;;
20251;SDS011;10284;58.364;15.550;2022-12-15T16:20:17;5.63;;;3.15;;
20251;SDS011;10284;58.364;15.550;2022-12-15T16:22:44;5.43;;;3.33;;
20251;SDS011;10284;58.364;15.550;2022-12-15T16:25:12;5.28;;;3.40;;
20251;SDS011;10284;58.364;15.550;2022-12-15T16:27:40;4.43;;;3.40;;
20251;SDS011;10284;58.364;15.550;2022-12-15T16:30:12;3.85;;;3.38;;
20251;SDS011;10284;58.364;15.550;2022-12-15T16:32:42;5.78;;;3.53;;
20251;SDS011;10284;58.364;15.550;2022-12-15T16:35:07;5.25;;;3.45;;
20251;SDS011;10284;58.364;15.550;2022-12-15T16:37:33;7.63;;;3.67;;
20251;SDS011;10284;58.364;15.550;2022-12-15T16:39:59;4.45;;;3.33;;
20251;SDS011;10284;58.364;15.550;2022-12-15T16:42:24;7.07;;;3.90;;
20251;SDS011;10284;58.364;15.550;2022-12-15T16:44:50;6.65;;;4.10;;
20251;SDS011;10284;58.364;15.550;2022-12-15T16:47:16;7.70;;;4.18;;
20251;SDS011;10284;58.364;15.550;2022-12-15T16:49:41;5.75;;;4.45;;
20251;SDS011;10284;58.364;15.550;2022-12-15T16:52:09;5.30;;;4.05;;
20251;SDS011;10284;58.364;15.550;2022-12-15T16:54:43;7.55;;;4.75;;
20251;SDS011;10284;58.364;15.550;2022-12-15T16:57:09;7.20;;;4.60;;
20251;SDS011;10284;58.364;15.550;2022-12-15T16:59:36;7.85;;;5.00;;
20251;SDS011;10284;58.364;15.550;2022-12-15T17:02:04;10.35;;;4.78;;
20251;SDS011;10284;58.364;15.550;2022-12-15T17:04:45;6.43;;;4.47;;
20251;SDS011;10284;58.364;15.550;2022-12-15T17:07:11;8.10;;;5.18;;
20251;SDS011;10284;58.364;15.550;2022-12-15T17:09:37;8.57;;;5.13;;
20251;SDS011;10284;58.364;15.550;2022-12-15T17:12:03;7.53;;;5.18;;
20251;SDS011;10284;58.364;15.550;2022-12-15T17:14:28;8.98;;;4.97;;
20251;SDS011;10284;58.364;15.550;2022-12-15T17:16:54;7.93;;;4.88;;
20251;SDS011;10284;58.364;15.550;2022-12-15T17:19:19;7.95;;;4.95;;
20251;SDS011;10284;58.364;15.550;2022-12-15T17:21:46;7.90;;;4.82;;
20251;SDS011;10284;58.364;15.550;2022-12-15T17:24:14;7.95;;;5.13;;